Aérodrome :







RETROUVEZ-NOUS SUR...

 
LOGIN :

S'inscrire | Disclaimer

   EN    FR    IT 

 









Légende :    VFR   VFR Marginal   IFR   IFR Intensif   IFR Très Intensif
Visi : 
Plafond : 
>= 8 km
>= 3000ft
5 à 8 km
1000 à 3000 ft
1500m à 5 km
500 à 1000 ft
800 à 1500m
200 à 500 ft
< 800m
< 200 ft
Symboles :   Orages  Brouillard  Fortes neiges  Fortes précipitations  Vent > 20 kt






- Altitude de l'aérodrome : 108 ft
- Code IATA : YGP


CYGP - Gaspé

DERNIER METAR :
  • 180200Z 28012KT 15SM SKC M13/M19 A3027 RMK SLP255

METARs EXPIRÉS :
  • 180100Z 27009KT 15SM SKC M13/M19 A3024 RMK SLP246
  • 180000Z 28009KT 15SM SKC M12/M19 A3022 RMK SLP239

TAF TAF CYGP
Valide du 18 à 02h jusqu'au 18 à 14h UTC


180138Z 1802/1814 27008KT P6SM SCT020
TEMPO 1802/1806 BKN020
FM180600 30006KT P6SM SKC
BECMG 1806/1808 VRB03KT RMK NXT FCST BY 180800Z



MET'MAP, la Météo Aéronautique d'un coup d'oeil ! - Copyright ORBIFLY Décembre 2007 - Disclaimer

ORBIFLY MET'MAP TEAM :

Programmation & Développement : Alexandra Zaïnal
Sur une idée originale de : Baudouin d'Aumeries
Assistance à la programmation : Marc-Olivier Méhu
Soutien technique & logistique : Manuel Goepfert

Contact : metmap@orbifly.com




SOURCES & CREDITS :

   NOAA